sensor_id;sensor_type;location;lat;lon;timestamp;pressure;altitude;pressure_sealevel;temperature;humidity
70302;BME280;57706;56.326;43.882;2023-02-12T00:01:11;99858.41;;;-3.08;70.24
70302;BME280;57706;56.326;43.882;2023-02-12T00:03:37;99842.56;;;-2.85;69.73
70302;BME280;57706;56.326;43.882;2023-02-12T00:06:04;99862.13;;;-2.97;69.92
70302;BME280;57706;56.326;43.882;2023-02-12T00:08:30;99868.06;;;-3.11;70.03
70302;BME280;57706;56.326;43.882;2023-02-12T00:10:55;99853.59;;;-2.98;69.50
70302;BME280;57706;56.326;43.882;2023-02-12T00:13:21;99839.00;;;-2.83;69.03
70302;BME280;57706;56.326;43.882;2023-02-12T00:16:08;99847.28;;;-3.08;70.26
70302;BME280;57706;56.326;43.882;2023-02-12T00:18:34;99848.06;;;-2.92;69.80
70302;BME280;57706;56.326;43.882;2023-02-12T00:21:01;99842.16;;;-3.08;70.20
70302;BME280;57706;56.326;43.882;2023-02-12T00:23:27;99844.44;;;-3.18;70.39
70302;BME280;57706;56.326;43.882;2023-02-12T00:25:53;99833.25;;;-3.17;70.75
70302;BME280;57706;56.326;43.882;2023-02-12T00:28:19;99821.53;;;-3.37;71.36
70302;BME280;57706;56.326;43.882;2023-02-12T00:30:45;99822.84;;;-2.85;69.24
70302;BME280;57706;56.326;43.882;2023-02-12T00:33:11;99819.03;;;-3.39;70.64
70302;BME280;57706;56.326;43.882;2023-02-12T00:35:37;99831.59;;;-3.18;70.16
70302;BME280;57706;56.326;43.882;2023-02-12T00:38:03;99808.19;;;-3.13;69.89
70302;BME280;57706;56.326;43.882;2023-02-12T00:40:28;99812.50;;;-3.44;71.10
70302;BME280;57706;56.326;43.882;2023-02-12T00:42:54;99831.00;;;-3.23;69.80
70302;BME280;57706;56.326;43.882;2023-02-12T00:45:20;99821.31;;;-3.18;70.48
70302;BME280;57706;56.326;43.882;2023-02-12T00:47:46;99807.09;;;-2.95;68.99
70302;BME280;57706;56.326;43.882;2023-02-12T00:50:14;99816.69;;;-3.27;70.05
70302;BME280;57706;56.326;43.882;2023-02-12T00:52:40;99799.63;;;-3.14;69.70
70302;BME280;57706;56.326;43.882;2023-02-12T00:55:07;99812.53;;;-3.30;69.74
70302;BME280;57706;56.326;43.882;2023-02-12T00:57:33;99810.13;;;-3.64;70.73
70302;BME280;57706;56.326;43.882;2023-02-12T00:59:59;99816.13;;;-3.33;70.45
70302;BME280;57706;56.326;43.882;2023-02-12T01:02:43;99795.59;;;-3.18;69.39
70302;BME280;57706;56.326;43.882;2023-02-12T01:05:09;99799.59;;;-3.28;70.00
70302;BME280;57706;56.326;43.882;2023-02-12T01:07:35;99790.38;;;-3.02;68.62
70302;BME280;57706;56.326;43.882;2023-02-12T01:10:04;99794.53;;;-2.99;68.32
70302;BME280;57706;56.326;43.882;2023-02-12T01:12:30;99799.59;;;-3.28;69.48
70302;BME280;57706;56.326;43.882;2023-02-12T01:14:56;99781.16;;;-3.21;69.33
70302;BME280;57706;56.326;43.882;2023-02-12T01:17:22;99803.72;;;-3.26;69.80
70302;BME280;57706;56.326;43.882;2023-02-12T01:20:07;99807.50;;;-3.32;70.57
70302;BME280;57706;56.326;43.882;2023-02-12T01:22:35;99809.31;;;-3.34;70.84
70302;BME280;57706;56.326;43.882;2023-02-12T01:25:02;99797.00;;;-3.43;70.86
70302;BME280;57706;56.326;43.882;2023-02-12T01:27:29;99812.56;;;-3.46;70.83
70302;BME280;57706;56.326;43.882;2023-02-12T01:29:55;99792.25;;;-3.65;71.80
70302;BME280;57706;56.326;43.882;2023-02-12T01:32:21;99804.22;;;-3.50;72.44
70302;BME280;57706;56.326;43.882;2023-02-12T01:34:46;99792.06;;;-3.62;73.50
70302;BME280;57706;56.326;43.882;2023-02-12T01:37:12;99786.13;;;-3.95;74.75
70302;BME280;57706;56.326;43.882;2023-02-12T01:39:38;99795.03;;;-3.70;75.12
70302;BME280;57706;56.326;43.882;2023-02-12T01:42:04;99779.41;;;-3.81;75.61
70302;BME280;57706;56.326;43.882;2023-02-12T01:44:32;99775.94;;;-3.80;76.25
70302;BME280;57706;56.326;43.882;2023-02-12T01:47:04;99794.91;;;-3.83;77.32
70302;BME280;57706;56.326;43.882;2023-02-12T01:49:37;99790.78;;;-4.02;77.64
70302;BME280;57706;56.326;43.882;2023-02-12T01:52:26;99811.16;;;-3.98;78.60
70302;BME280;57706;56.326;43.882;2023-02-12T01:54:54;99809.25;;;-4.11;78.78
70302;BME280;57706;56.326;43.882;2023-02-12T01:57:23;99800.81;;;-4.13;79.84
70302;BME280;57706;56.326;43.882;2023-02-12T01:59:50;99815.53;;;-4.17;79.85
70302;BME280;57706;56.326;43.882;2023-02-12T02:02:18;99785.47;;;-4.31;82.16
70302;BME280;57706;56.326;43.882;2023-02-12T02:04:51;99797.88;;;-4.23;82.77
70302;BME280;57706;56.326;43.882;2023-02-12T02:07:18;99791.91;;;-4.39;82.79
70302;BME280;57706;56.326;43.882;2023-02-12T02:09:44;99794.59;;;-4.25;84.85
70302;BME280;57706;56.326;43.882;2023-02-12T02:12:10;99797.06;;;-4.07;85.01
70302;BME280;57706;56.326;43.882;2023-02-12T02:14:58;99800.97;;;-4.00;83.21
70302;BME280;57706;56.326;43.882;2023-02-12T02:26:12;99793.56;;;-4.38;83.24
70302;BME280;57706;56.326;43.882;2023-02-12T02:39:51;99782.66;;;-4.26;83.67
70302;BME280;57706;56.326;43.882;2023-02-12T02:42:40;99788.13;;;-4.16;82.84
70302;BME280;57706;56.326;43.882;2023-02-12T02:45:51;99781.91;;;-3.96;82.77
70302;BME280;57706;56.326;43.882;2023-02-12T02:50:47;99783.47;;;-4.25;84.02
70302;BME280;57706;56.326;43.882;2023-02-12T02:53:42;99780.09;;;-4.26;83.40
70302;BME280;57706;56.326;43.882;2023-02-12T02:56:15;99781.19;;;-4.14;82.85
70302;BME280;57706;56.326;43.882;2023-02-12T02:58:46;99775.38;;;-4.02;83.65
70302;BME280;57706;56.326;43.882;2023-02-12T03:01:25;99785.00;;;-4.21;83.60
70302;BME280;57706;56.326;43.882;2023-02-12T03:06:38;99781.97;;;-3.81;82.68
70302;BME280;57706;56.326;43.882;2023-02-12T03:09:46;99790.44;;;-4.11;83.17
70302;BME280;57706;56.326;43.882;2023-02-12T03:12:43;99787.44;;;-4.20;85.40
70302;BME280;57706;56.326;43.882;2023-02-12T03:15:41;99785.31;;;-4.44;85.26
70302;BME280;57706;56.326;43.882;2023-02-12T03:18:35;99772.22;;;-4.23;84.72
70302;BME280;57706;56.326;43.882;2023-02-12T03:21:11;99771.75;;;-3.97;83.56
70302;BME280;57706;56.326;43.882;2023-02-12T03:23:46;99782.63;;;-3.78;84.39
70302;BME280;57706;56.326;43.882;2023-02-12T03:26:20;99767.75;;;-4.03;84.62
70302;BME280;57706;56.326;43.882;2023-02-12T03:28:47;99764.22;;;-3.70;82.84
70302;BME280;57706;56.326;43.882;2023-02-12T03:31:36;99763.69;;;-4.07;82.99
70302;BME280;57706;56.326;43.882;2023-02-12T03:36:59;99770.91;;;-4.14;85.01
70302;BME280;57706;56.326;43.882;2023-02-12T03:39:55;99767.72;;;-4.67;86.90
70302;BME280;57706;56.326;43.882;2023-02-12T03:45:04;99769.25;;;-4.31;86.77
70302;BME280;57706;56.326;43.882;2023-02-12T03:47:40;99766.94;;;-4.36;86.36
70302;BME280;57706;56.326;43.882;2023-02-12T03:50:09;99772.47;;;-4.11;87.35
70302;BME280;57706;56.326;43.882;2023-02-12T03:52:38;99771.06;;;-4.33;86.40
70302;BME280;57706;56.326;43.882;2023-02-12T03:55:05;99770.91;;;-4.30;86.41
70302;BME280;57706;56.326;43.882;2023-02-12T03:57:37;99772.88;;;-4.19;86.94
70302;BME280;57706;56.326;43.882;2023-02-12T04:00:08;99766.75;;;-3.84;83.81
70302;BME280;57706;56.326;43.882;2023-02-12T04:02:40;99781.66;;;-4.07;84.38
70302;BME280;57706;56.326;43.882;2023-02-12T04:05:07;99769.66;;;-4.23;84.38
70302;BME280;57706;56.326;43.882;2023-02-12T04:07:34;99769.97;;;-4.29;84.41
70302;BME280;57706;56.326;43.882;2023-02-12T04:10:01;99778.66;;;-4.48;85.56
70302;BME280;57706;56.326;43.882;2023-02-12T04:15:33;99768.84;;;-4.07;83.43
70302;BME280;57706;56.326;43.882;2023-02-12T04:18:15;99774.13;;;-4.43;85.37
70302;BME280;57706;56.326;43.882;2023-02-12T04:23:32;99763.94;;;-3.96;84.25
70302;BME280;57706;56.326;43.882;2023-02-12T04:26:19;99766.44;;;-4.10;84.91
70302;BME280;57706;56.326;43.882;2023-02-12T04:34:42;99770.84;;;-3.66;83.46
70302;BME280;57706;56.326;43.882;2023-02-12T04:37:23;99773.28;;;-3.95;83.01
70302;BME280;57706;56.326;43.882;2023-02-12T04:39:50;99777.19;;;-4.04;83.97
70302;BME280;57706;56.326;43.882;2023-02-12T04:42:17;99778.50;;;-4.12;83.95
70302;BME280;57706;56.326;43.882;2023-02-12T04:44:43;99780.25;;;-3.97;84.79
70302;BME280;57706;56.326;43.882;2023-02-12T04:47:13;99788.78;;;-4.12;84.01
70302;BME280;57706;56.326;43.882;2023-02-12T04:49:39;99790.94;;;-4.21;83.67
70302;BME280;57706;56.326;43.882;2023-02-12T04:52:06;99772.88;;;-4.03;82.73
70302;BME280;57706;56.326;43.882;2023-02-12T04:54:32;99792.25;;;-3.81;84.61
70302;BME280;57706;56.326;43.882;2023-02-12T04:56:58;99785.22;;;-3.78;84.49
70302;BME280;57706;56.326;43.882;2023-02-12T04:59:42;99795.16;;;-4.36;84.80
70302;BME280;57706;56.326;43.882;2023-02-12T05:02:08;99784.31;;;-4.25;84.94
70302;BME280;57706;56.326;43.882;2023-02-12T05:04:34;99789.97;;;-4.02;83.81
70302;BME280;57706;56.326;43.882;2023-02-12T05:06:59;99791.84;;;-3.90;84.52
70302;BME280;57706;56.326;43.882;2023-02-12T05:09:25;99798.91;;;-4.09;84.03
70302;BME280;57706;56.326;43.882;2023-02-12T05:11:51;99792.56;;;-3.88;84.15
70302;BME280;57706;56.326;43.882;2023-02-12T05:14:17;99800.69;;;-3.63;83.55
70302;BME280;57706;56.326;43.882;2023-02-12T05:16:42;99802.44;;;-3.80;83.57
70302;BME280;57706;56.326;43.882;2023-02-12T05:19:08;99805.69;;;-3.76;82.10
70302;BME280;57706;56.326;43.882;2023-02-12T05:21:35;99795.91;;;-3.85;82.77
70302;BME280;57706;56.326;43.882;2023-02-12T05:24:02;99798.31;;;-3.82;83.04
70302;BME280;57706;56.326;43.882;2023-02-12T05:26:28;99798.63;;;-3.72;82.79
70302;BME280;57706;56.326;43.882;2023-02-12T05:28:54;99802.13;;;-3.43;83.43
70302;BME280;57706;56.326;43.882;2023-02-12T05:31:20;99804.97;;;-3.48;81.32
70302;BME280;57706;56.326;43.882;2023-02-12T05:33:47;99801.78;;;-3.37;81.25
70302;BME280;57706;56.326;43.882;2023-02-12T05:36:19;99806.81;;;-3.19;80.79
70302;BME280;57706;56.326;43.882;2023-02-12T05:38:45;99812.34;;;-3.57;81.63
70302;BME280;57706;56.326;43.882;2023-02-12T05:41:17;99818.88;;;-3.36;82.54
70302;BME280;57706;56.326;43.882;2023-02-12T05:43:44;99812.94;;;-3.52;80.43
70302;BME280;57706;56.326;43.882;2023-02-12T05:46:10;99794.84;;;-3.20;81.48
70302;BME280;57706;56.326;43.882;2023-02-12T05:48:37;99814.19;;;-3.60;80.67
70302;BME280;57706;56.326;43.882;2023-02-12T05:51:07;99821.53;;;-3.37;80.98
70302;BME280;57706;56.326;43.882;2023-02-12T05:53:33;99817.19;;;-3.37;82.44
70302;BME280;57706;56.326;43.882;2023-02-12T05:56:32;99821.00;;;-3.28;80.65
70302;BME280;57706;56.326;43.882;2023-02-12T05:59:05;99822.50;;;-3.40;80.76
70302;BME280;57706;56.326;43.882;2023-02-12T06:01:32;99824.78;;;-3.19;80.67
70302;BME280;57706;56.326;43.882;2023-02-12T06:04:03;99824.69;;;-3.48;80.71
70302;BME280;57706;56.326;43.882;2023-02-12T06:06:31;99823.94;;;-3.50;80.34
70302;BME280;57706;56.326;43.882;2023-02-12T06:08:57;99817.09;;;-3.05;81.27
70302;BME280;57706;56.326;43.882;2023-02-12T06:11:23;99824.69;;;-3.18;80.68
70302;BME280;57706;56.326;43.882;2023-02-12T06:13:49;99825.84;;;-2.93;79.63
70302;BME280;57706;56.326;43.882;2023-02-12T06:16:21;99830.09;;;-3.22;79.31
70302;BME280;57706;56.326;43.882;2023-02-12T06:18:47;99831.19;;;-3.26;79.83
70302;BME280;57706;56.326;43.882;2023-02-12T06:21:14;99834.94;;;-3.01;79.07
70302;BME280;57706;56.326;43.882;2023-02-12T06:23:41;99831.31;;;-2.68;78.71
70302;BME280;57706;56.326;43.882;2023-02-12T06:26:07;99837.00;;;-2.78;79.14
70302;BME280;57706;56.326;43.882;2023-02-12T06:28:33;99840.50;;;-2.64;78.48
70302;BME280;57706;56.326;43.882;2023-02-12T06:30:58;99835.34;;;-2.64;76.86
70302;BME280;57706;56.326;43.882;2023-02-12T06:33:43;99843.06;;;-3.09;79.07
70302;BME280;57706;56.326;43.882;2023-02-12T06:36:09;99837.72;;;-2.75;78.24
70302;BME280;57706;56.326;43.882;2023-02-12T06:38:34;99843.03;;;-2.79;78.08
70302;BME280;57706;56.326;43.882;2023-02-12T06:41:01;99844.75;;;-2.94;78.58
70302;BME280;57706;56.326;43.882;2023-02-12T06:43:27;99837.66;;;-3.05;79.39
70302;BME280;57706;56.326;43.882;2023-02-12T06:45:53;99843.34;;;-2.54;78.12
70302;BME280;57706;56.326;43.882;2023-02-12T06:48:19;99847.06;;;-2.89;78.24
70302;BME280;57706;56.326;43.882;2023-02-12T06:50:44;99848.31;;;-2.66;79.49
70302;BME280;57706;56.326;43.882;2023-02-12T06:53:10;99847.41;;;-2.95;77.97
70302;BME280;57706;56.326;43.882;2023-02-12T06:55:36;99848.78;;;-2.59;78.96
70302;BME280;57706;56.326;43.882;2023-02-12T06:58:02;99855.75;;;-2.32;78.87
70302;BME280;57706;56.326;43.882;2023-02-12T07:00:28;99862.13;;;-2.23;77.25
70302;BME280;57706;56.326;43.882;2023-02-12T07:02:54;99856.13;;;-2.53;76.27
70302;BME280;57706;56.326;43.882;2023-02-12T07:05:21;99865.50;;;-2.37;77.03
70302;BME280;57706;56.326;43.882;2023-02-12T07:07:47;99855.56;;;-2.14;76.47
70302;BME280;57706;56.326;43.882;2023-02-12T07:10:13;99855.38;;;-2.11;75.12
70302;BME280;57706;56.326;43.882;2023-02-12T07:12:39;99860.72;;;-2.29;74.08
70302;BME280;57706;56.326;43.882;2023-02-12T07:15:05;99857.25;;;-2.28;75.16
70302;BME280;57706;56.326;43.882;2023-02-12T07:17:31;99861.81;;;-2.18;75.11
70302;BME280;57706;56.326;43.882;2023-02-12T07:19:57;99865.06;;;-1.87;75.07
70302;BME280;57706;56.326;43.882;2023-02-12T07:22:23;99861.50;;;-1.85;73.32
70302;BME280;57706;56.326;43.882;2023-02-12T07:24:48;99865.47;;;-1.94;72.07
70302;BME280;57706;56.326;43.882;2023-02-12T07:27:14;99862.91;;;-2.08;72.58
70302;BME280;57706;56.326;43.882;2023-02-12T07:29:40;99866.56;;;-1.83;73.02
70302;BME280;57706;56.326;43.882;2023-02-12T07:32:06;99871.38;;;-2.06;71.00
70302;BME280;57706;56.326;43.882;2023-02-12T07:34:32;99870.19;;;-2.15;71.61
70302;BME280;57706;56.326;43.882;2023-02-12T07:37:16;99871.66;;;-1.96;72.40
70302;BME280;57706;56.326;43.882;2023-02-12T07:39:47;99872.75;;;-1.58;72.01
70302;BME280;57706;56.326;43.882;2023-02-12T07:42:13;99872.78;;;-1.18;72.38
70302;BME280;57706;56.326;43.882;2023-02-12T07:44:47;99873.78;;;-1.33;69.56
70302;BME280;57706;56.326;43.882;2023-02-12T07:47:15;99879.00;;;-1.62;70.72
70302;BME280;57706;56.326;43.882;2023-02-12T07:49:41;99881.59;;;-1.62;69.57
70302;BME280;57706;56.326;43.882;2023-02-12T07:52:25;99895.38;;;-1.49;70.85
70302;BME280;57706;56.326;43.882;2023-02-12T07:54:51;99901.78;;;-1.42;70.07
70302;BME280;57706;56.326;43.882;2023-02-12T07:57:17;99903.78;;;-1.32;69.36
70302;BME280;57706;56.326;43.882;2023-02-12T07:59:42;99904.97;;;-1.51;68.47
70302;BME280;57706;56.326;43.882;2023-02-12T08:02:08;99912.72;;;-1.66;70.58
70302;BME280;57706;56.326;43.882;2023-02-12T08:04:56;99904.97;;;-1.23;69.62
70302;BME280;57706;56.326;43.882;2023-02-12T08:07:23;99913.91;;;-1.29;70.58
70302;BME280;57706;56.326;43.882;2023-02-12T08:09:49;99913.78;;;-1.55;69.08
70302;BME280;57706;56.326;43.882;2023-02-12T08:12:16;99909.81;;;-1.88;70.97
70302;BME280;57706;56.326;43.882;2023-02-12T08:14:42;99914.00;;;-1.58;71.34
70302;BME280;57706;56.326;43.882;2023-02-12T08:17:09;99917.66;;;-1.20;69.89
70302;BME280;57706;56.326;43.882;2023-02-12T08:19:35;99917.47;;;-1.04;68.93
70302;BME280;57706;56.326;43.882;2023-02-12T08:22:00;99912.28;;;-0.77;69.25
70302;BME280;57706;56.326;43.882;2023-02-12T08:24:31;99917.97;;;-0.85;67.17
70302;BME280;57706;56.326;43.882;2023-02-12T08:26:57;99919.53;;;-0.69;67.33
70302;BME280;57706;56.326;43.882;2023-02-12T08:29:28;99923.16;;;-0.59;68.35
70302;BME280;57706;56.326;43.882;2023-02-12T08:31:58;99933.06;;;-0.01;68.50
70302;BME280;57706;56.326;43.882;2023-02-12T08:34:27;99928.94;;;-0.16;66.89
70302;BME280;57706;56.326;43.882;2023-02-12T08:36:54;99932.97;;;0.14;66.83
70302;BME280;57706;56.326;43.882;2023-02-12T08:39:21;99935.06;;;-0.17;65.59
70302;BME280;57706;56.326;43.882;2023-02-12T08:41:47;99937.31;;;0.01;66.06
70302;BME280;57706;56.326;43.882;2023-02-12T08:44:14;99935.03;;;0.09;65.03
70302;BME280;57706;56.326;43.882;2023-02-12T08:46:46;99937.31;;;0.01;66.30
70302;BME280;57706;56.326;43.882;2023-02-12T08:49:16;99940.00;;;-0.14;64.23
70302;BME280;57706;56.326;43.882;2023-02-12T08:52:01;99939.75;;;0.28;66.45
70302;BME280;57706;56.326;43.882;2023-02-12T08:54:29;99942.50;;;-0.25;66.12
70302;BME280;57706;56.326;43.882;2023-02-12T08:56:57;99943.31;;;-0.12;66.86
70302;BME280;57706;56.326;43.882;2023-02-12T08:59:23;99944.50;;;-0.70;66.38
70302;BME280;57706;56.326;43.882;2023-02-12T09:01:51;99951.19;;;-0.93;67.31
70302;BME280;57706;56.326;43.882;2023-02-12T09:04:20;99950.50;;;-0.69;69.05
70302;BME280;57706;56.326;43.882;2023-02-12T09:06:47;99950.13;;;-0.50;67.57
70302;BME280;57706;56.326;43.882;2023-02-12T09:09:14;99959.91;;;-1.08;67.48
70302;BME280;57706;56.326;43.882;2023-02-12T09:11:41;99962.59;;;-0.97;69.18
70302;BME280;57706;56.326;43.882;2023-02-12T09:14:10;99961.56;;;-0.67;67.99
70302;BME280;57706;56.326;43.882;2023-02-12T09:16:37;99951.94;;;-0.65;67.25
70302;BME280;57706;56.326;43.882;2023-02-12T09:19:05;99952.72;;;-0.50;67.67
70302;BME280;57706;56.326;43.882;2023-02-12T09:21:31;99956.31;;;-0.52;68.08
70302;BME280;57706;56.326;43.882;2023-02-12T09:23:57;99972.78;;;-0.81;68.72
70302;BME280;57706;56.326;43.882;2023-02-12T09:26:24;99973.06;;;-0.45;68.00
70302;BME280;57706;56.326;43.882;2023-02-12T09:28:53;99982.13;;;-0.65;68.30
70302;BME280;57706;56.326;43.882;2023-02-12T09:31:25;99986.06;;;-0.60;67.96
70302;BME280;57706;56.326;43.882;2023-02-12T09:33:57;99986.84;;;-0.72;67.71
70302;BME280;57706;56.326;43.882;2023-02-12T09:36:41;99985.47;;;-1.05;66.83
70302;BME280;57706;56.326;43.882;2023-02-12T09:39:07;99989.34;;;-0.58;67.48
70302;BME280;57706;56.326;43.882;2023-02-12T09:50:29;99991.06;;;0.21;66.72
70302;BME280;57706;56.326;43.882;2023-02-12T09:52:58;99984.75;;;-0.01;66.99
70302;BME280;57706;56.326;43.882;2023-02-12T09:55:33;99995.41;;;0.08;66.29
70302;BME280;57706;56.326;43.882;2023-02-12T09:58:32;99996.66;;;-0.11;65.42
70302;BME280;57706;56.326;43.882;2023-02-12T10:01:20;99998.66;;;0.49;66.51
70302;BME280;57706;56.326;43.882;2023-02-12T10:03:49;99997.63;;;0.89;66.02
70302;BME280;57706;56.326;43.882;2023-02-12T10:06:19;99991.56;;;1.01;64.35
70302;BME280;57706;56.326;43.882;2023-02-12T10:08:55;99999.47;;;0.49;63.36
70302;BME280;57706;56.326;43.882;2023-02-12T10:22:42;100012.53;;;0.35;64.86
70302;BME280;57706;56.326;43.882;2023-02-12T10:28:35;100010.22;;;0.56;65.88
70302;BME280;57706;56.326;43.882;2023-02-12T10:31:12;100014.19;;;0.36;63.59
70302;BME280;57706;56.326;43.882;2023-02-12T10:33:44;100012.25;;;0.01;64.05
70302;BME280;57706;56.326;43.882;2023-02-12T10:36:42;100018.13;;;0.29;64.42
70302;BME280;57706;56.326;43.882;2023-02-12T10:42:16;100023.50;;;-0.26;65.36
70302;BME280;57706;56.326;43.882;2023-02-12T10:44:43;100028.38;;;0.17;65.97
70302;BME280;57706;56.326;43.882;2023-02-12T10:47:19;100028.66;;;0.51;65.25
70302;BME280;57706;56.326;43.882;2023-02-12T10:49:52;100029.66;;;0.62;63.47
70302;BME280;57706;56.326;43.882;2023-02-12T10:57:53;100040.88;;;0.87;63.89
70302;BME280;57706;56.326;43.882;2023-02-12T11:03:27;100052.47;;;0.44;63.33
70302;BME280;57706;56.326;43.882;2023-02-12T11:05:54;100053.16;;;0.59;63.78
70302;BME280;57706;56.326;43.882;2023-02-12T11:08:30;100057.81;;;0.53;62.07
70302;BME280;57706;56.326;43.882;2023-02-12T11:11:12;100056.38;;;0.49;64.17
70302;BME280;57706;56.326;43.882;2023-02-12T11:13:44;100066.34;;;0.80;65.96
70302;BME280;57706;56.326;43.882;2023-02-12T11:16:11;100068.19;;;0.91;66.30
70302;BME280;57706;56.326;43.882;2023-02-12T11:18:37;100068.50;;;0.99;66.29
70302;BME280;57706;56.326;43.882;2023-02-12T11:21:08;100072.44;;;0.92;65.51
70302;BME280;57706;56.326;43.882;2023-02-12T11:23:40;100084.06;;;0.86;67.06
70302;BME280;57706;56.326;43.882;2023-02-12T11:26:25;100084.84;;;0.87;68.45
70302;BME280;57706;56.326;43.882;2023-02-12T11:31:22;100087.38;;;0.75;68.71
70302;BME280;57706;56.326;43.882;2023-02-12T11:36:30;100115.00;;;0.62;69.86
70302;BME280;57706;56.326;43.882;2023-02-12T11:38:58;100112.25;;;0.52;69.31
70302;BME280;57706;56.326;43.882;2023-02-12T11:41:38;100122.38;;;0.42;67.59
70302;BME280;57706;56.326;43.882;2023-02-12T11:46:49;100124.97;;;0.42;68.24
70302;BME280;57706;56.326;43.882;2023-02-12T11:49:20;100119.78;;;0.55;69.42
70302;BME280;57706;56.326;43.882;2023-02-12T11:51:48;100126.59;;;0.69;70.27
70302;BME280;57706;56.326;43.882;2023-02-12T11:54:19;100128.47;;;0.67;69.04
70302;BME280;57706;56.326;43.882;2023-02-12T11:56:46;100133.22;;;0.73;68.28
70302;BME280;57706;56.326;43.882;2023-02-12T12:02:00;100146.19;;;0.47;67.60
70302;BME280;57706;56.326;43.882;2023-02-12T12:04:32;100150.50;;;0.34;66.27
70302;BME280;57706;56.326;43.882;2023-02-12T12:07:08;100151.84;;;0.26;66.68
70302;BME280;57706;56.326;43.882;2023-02-12T12:09:41;100152.97;;;0.22;68.41
70302;BME280;57706;56.326;43.882;2023-02-12T12:12:22;100152.34;;;0.19;67.02
70302;BME280;57706;56.326;43.882;2023-02-12T12:15:02;100160.84;;;0.34;68.95
70302;BME280;57706;56.326;43.882;2023-02-12T12:20:48;100173.69;;;0.61;68.07
70302;BME280;57706;56.326;43.882;2023-02-12T12:23:24;100184.00;;;0.22;65.92
70302;BME280;57706;56.326;43.882;2023-02-12T12:25:57;100177.97;;;0.09;67.29
70302;BME280;57706;56.326;43.882;2023-02-12T12:31:29;100182.66;;;0.30;67.19
70302;BME280;57706;56.326;43.882;2023-02-12T12:39:15;100190.56;;;0.67;67.60
70302;BME280;57706;56.326;43.882;2023-02-12T12:41:49;100193.34;;;0.64;68.57
70302;BME280;57706;56.326;43.882;2023-02-12T12:55:52;100223.81;;;-0.08;69.08
70302;BME280;57706;56.326;43.882;2023-02-12T13:11:57;100241.41;;;-0.42;70.46
70302;BME280;57706;56.326;43.882;2023-02-12T13:14:51;100246.16;;;-0.49;71.80
70302;BME280;57706;56.326;43.882;2023-02-12T13:17:42;100256.63;;;-0.52;72.28
70302;BME280;57706;56.326;43.882;2023-02-12T13:20:16;100260.16;;;-0.53;72.74
70302;BME280;57706;56.326;43.882;2023-02-12T13:27:50;100264.41;;;-0.95;70.93
70302;BME280;57706;56.326;43.882;2023-02-12T13:30:21;100267.97;;;-1.13;72.30
70302;BME280;57706;56.326;43.882;2023-02-12T13:35:28;100265.88;;;-0.91;72.90
70302;BME280;57706;56.326;43.882;2023-02-12T13:37:56;100271.66;;;-1.17;72.00
70302;BME280;57706;56.326;43.882;2023-02-12T13:40:24;100281.44;;;-1.07;73.42
70302;BME280;57706;56.326;43.882;2023-02-12T13:51:09;100290.94;;;-1.08;73.14
70302;BME280;57706;56.326;43.882;2023-02-12T13:58:51;100298.84;;;-1.42;73.40
70302;BME280;57706;56.326;43.882;2023-02-12T14:01:37;100303.03;;;-1.55;74.38
70302;BME280;57706;56.326;43.882;2023-02-12T14:05:16;100316.22;;;-1.76;74.58
70302;BME280;57706;56.326;43.882;2023-02-12T14:07:42;100322.78;;;-1.86;75.13
70302;BME280;57706;56.326;43.882;2023-02-12T14:10:18;100330.00;;;-1.77;75.24
70302;BME280;57706;56.326;43.882;2023-02-12T14:12:44;100330.00;;;-1.77;75.87
70302;BME280;57706;56.326;43.882;2023-02-12T14:15:33;100338.31;;;-1.88;75.52
70302;BME280;57706;56.326;43.882;2023-02-12T14:20:47;100347.78;;;-1.88;75.81
70302;BME280;57706;56.326;43.882;2023-02-12T14:23:33;100349.63;;;-1.90;76.13
70302;BME280;57706;56.326;43.882;2023-02-12T14:28:33;100345.44;;;-1.93;76.08
70302;BME280;57706;56.326;43.882;2023-02-12T14:31:33;100359.75;;;-2.03;76.08
70302;BME280;57706;56.326;43.882;2023-02-12T14:39:04;100377.03;;;-1.89;76.51
70302;BME280;57706;56.326;43.882;2023-02-12T14:41:37;100378.69;;;-1.88;76.74
70302;BME280;57706;56.326;43.882;2023-02-12T14:47:08;100387.19;;;-1.86;76.58
70302;BME280;57706;56.326;43.882;2023-02-12T14:49:48;100393.91;;;-2.00;76.38
70302;BME280;57706;56.326;43.882;2023-02-12T14:52:24;100392.25;;;-2.01;76.74
70302;BME280;57706;56.326;43.882;2023-02-12T14:54:54;100395.50;;;-1.97;76.96
70302;BME280;57706;56.326;43.882;2023-02-12T14:57:28;100399.97;;;-2.01;76.68
70302;BME280;57706;56.326;43.882;2023-02-12T14:59:57;100405.44;;;-2.07;76.78
70302;BME280;57706;56.326;43.882;2023-02-12T15:02:27;100400.72;;;-1.99;77.27
70302;BME280;57706;56.326;43.882;2023-02-12T15:05:00;100410.94;;;-1.97;76.78
70302;BME280;57706;56.326;43.882;2023-02-12T15:07:34;100412.78;;;-1.99;76.93
70302;BME280;57706;56.326;43.882;2023-02-12T15:10:06;100418.56;;;-1.96;77.30
70302;BME280;57706;56.326;43.882;2023-02-12T15:20:55;100439.19;;;-1.96;77.49
70302;BME280;57706;56.326;43.882;2023-02-12T15:23:37;100447.44;;;-2.23;76.87
70302;BME280;57706;56.326;43.882;2023-02-12T15:26:05;100447.31;;;-2.19;77.41
70302;BME280;57706;56.326;43.882;2023-02-12T15:28:36;100447.88;;;-2.14;78.03
70302;BME280;57706;56.326;43.882;2023-02-12T15:31:04;100452.75;;;-2.26;77.50
70302;BME280;57706;56.326;43.882;2023-02-12T15:33:38;100454.84;;;-2.16;78.05
70302;BME280;57706;56.326;43.882;2023-02-12T15:36:07;100457.44;;;-2.16;77.90
70302;BME280;57706;56.326;43.882;2023-02-12T15:38:59;100454.22;;;-2.04;78.00
70302;BME280;57706;56.326;43.882;2023-02-12T15:41:35;100463.94;;;-2.09;78.20
70302;BME280;57706;56.326;43.882;2023-02-12T15:44:23;100463.78;;;-2.06;77.80
70302;BME280;57706;56.326;43.882;2023-02-12T15:49:42;100471.81;;;-2.12;77.50
70302;BME280;57706;56.326;43.882;2023-02-12T15:52:20;100482.34;;;-2.17;77.86
70302;BME280;57706;56.326;43.882;2023-02-12T15:54:49;100480.22;;;-2.09;78.01
70302;BME280;57706;56.326;43.882;2023-02-12T15:57:21;100482.72;;;-2.07;77.59
70302;BME280;57706;56.326;43.882;2023-02-12T15:59:55;100482.00;;;-2.27;78.10